sensor_id;sensor_type;location;lat;lon;timestamp;pressure;altitude;pressure_sealevel;temperature;humidity
70229;BME280;57617;51.988;5.854;2023-01-26T00:02:18;102093.50;;;2.71;72.13
70229;BME280;57617;51.988;5.854;2023-01-26T00:04:43;102092.47;;;2.72;71.47
70229;BME280;57617;51.988;5.854;2023-01-26T00:07:08;102085.94;;;2.67;72.15
70229;BME280;57617;51.988;5.854;2023-01-26T00:09:34;102081.09;;;2.70;72.38
70229;BME280;57617;51.988;5.854;2023-01-26T00:11:59;102077.41;;;2.71;71.52
70229;BME280;57617;51.988;5.854;2023-01-26T00:14:24;102075.72;;;2.70;71.54
70229;BME280;57617;51.988;5.854;2023-01-26T00:16:49;102064.28;;;2.68;71.99
70229;BME280;57617;51.988;5.854;2023-01-26T00:19:15;102074.41;;;2.74;71.54
70229;BME280;57617;51.988;5.854;2023-01-26T00:21:40;102075.22;;;2.75;71.58
70229;BME280;57617;51.988;5.854;2023-01-26T00:24:06;102071.88;;;2.73;72.11
70229;BME280;57617;51.988;5.854;2023-01-26T00:26:31;102067.19;;;2.75;72.37
70229;BME280;57617;51.988;5.854;2023-01-26T00:28:59;102065.34;;;2.75;72.23
70229;BME280;57617;51.988;5.854;2023-01-26T00:31:25;102059.28;;;2.73;71.63
70229;BME280;57617;51.988;5.854;2023-01-26T00:33:52;102056.59;;;2.65;72.01
70229;BME280;57617;51.988;5.854;2023-01-26T00:36:18;102061.59;;;2.68;71.91
70229;BME280;57617;51.988;5.854;2023-01-26T00:38:43;102057.09;;;2.69;71.32
70229;BME280;57617;51.988;5.854;2023-01-26T00:41:09;102061.44;;;2.70;71.83
70229;BME280;57617;51.988;5.854;2023-01-26T00:43:58;102042.00;;;2.68;72.20
70229;BME280;57617;51.988;5.854;2023-01-26T00:46:23;102043.69;;;2.69;71.63
70229;BME280;57617;51.988;5.854;2023-01-26T00:48:49;102050.72;;;2.70;71.99
70229;BME280;57617;51.988;5.854;2023-01-26T00:51:14;102039.19;;;2.69;72.01
70229;BME280;57617;51.988;5.854;2023-01-26T00:53:39;102048.91;;;2.70;71.54
70229;BME280;57617;51.988;5.854;2023-01-26T00:56:05;102053.25;;;2.71;71.88
70229;BME280;57617;51.988;5.854;2023-01-26T00:58:30;102050.41;;;2.73;72.43
70229;BME280;57617;51.988;5.854;2023-01-26T01:00:56;102061.16;;;2.73;72.22
70229;BME280;57617;51.988;5.854;2023-01-26T01:03:21;102057.63;;;2.72;72.54
70229;BME280;57617;51.988;5.854;2023-01-26T01:05:46;102057.47;;;2.74;72.20
70229;BME280;57617;51.988;5.854;2023-01-26T01:08:11;102050.41;;;2.73;72.12
70229;BME280;57617;51.988;5.854;2023-01-26T01:10:37;102045.72;;;2.75;72.55
70229;BME280;57617;51.988;5.854;2023-01-26T01:13:02;102047.41;;;2.76;71.70
70229;BME280;57617;51.988;5.854;2023-01-26T01:15:27;102053.13;;;2.81;71.96
70229;BME280;57617;51.988;5.854;2023-01-26T01:17:52;102039.56;;;2.82;72.35
70229;BME280;57617;51.988;5.854;2023-01-26T01:20:18;102046.59;;;2.83;72.11
70229;BME280;57617;51.988;5.854;2023-01-26T01:22:43;102037.56;;;2.84;71.75
70229;BME280;57617;51.988;5.854;2023-01-26T01:25:09;102044.47;;;2.87;72.46
70229;BME280;57617;51.988;5.854;2023-01-26T01:27:34;102044.63;;;2.85;71.72
70229;BME280;57617;51.988;5.854;2023-01-26T01:29:59;102031.34;;;2.84;71.65
70229;BME280;57617;51.988;5.854;2023-01-26T01:32:24;102039.25;;;2.85;72.14
70229;BME280;57617;51.988;5.854;2023-01-26T01:34:50;102033.03;;;2.85;72.48
70229;BME280;57617;51.988;5.854;2023-01-26T01:37:16;102039.25;;;2.85;71.86
70229;BME280;57617;51.988;5.854;2023-01-26T01:39:41;102034.72;;;2.86;71.60
70229;BME280;57617;51.988;5.854;2023-01-26T01:42:07;102032.72;;;2.88;72.24
70229;BME280;57617;51.988;5.854;2023-01-26T01:44:36;102030.72;;;2.90;72.37
70229;BME280;57617;51.988;5.854;2023-01-26T01:47:12;102038.59;;;2.91;72.03
70229;BME280;57617;51.988;5.854;2023-01-26T01:49:45;102031.88;;;2.87;71.79
70229;BME280;57617;51.988;5.854;2023-01-26T01:52:15;102024.34;;;2.91;72.54
70229;BME280;57617;51.988;5.854;2023-01-26T01:54:50;102023.50;;;2.90;72.50
70229;BME280;57617;51.988;5.854;2023-01-26T01:57:23;102024.53;;;2.89;72.28
70229;BME280;57617;51.988;5.854;2023-01-26T02:00:07;102016.94;;;2.85;72.72
70229;BME280;57617;51.988;5.854;2023-01-26T02:02:34;102012.44;;;2.85;72.60
70229;BME280;57617;51.988;5.854;2023-01-26T02:05:11;102015.78;;;2.87;72.20
70229;BME280;57617;51.988;5.854;2023-01-26T02:07:39;102017.28;;;2.90;71.74
70229;BME280;57617;51.988;5.854;2023-01-26T02:10:05;102014.75;;;2.88;71.67
70229;BME280;57617;51.988;5.854;2023-01-26T02:12:44;102018.31;;;2.89;72.49
70229;BME280;57617;51.988;5.854;2023-01-26T02:15:10;102005.75;;;2.89;72.73
70229;BME280;57617;51.988;5.854;2023-01-26T02:17:37;102003.06;;;2.89;72.80
70229;BME280;57617;51.988;5.854;2023-01-26T02:20:21;102003.56;;;2.93;72.46
70229;BME280;57617;51.988;5.854;2023-01-26T02:23:18;102006.09;;;2.94;72.12
70229;BME280;57617;51.988;5.854;2023-01-26T02:28:22;102004.22;;;2.95;72.63
70229;BME280;57617;51.988;5.854;2023-01-26T02:30:49;101999.88;;;2.94;72.10
70229;BME280;57617;51.988;5.854;2023-01-26T02:33:27;102003.56;;;2.93;72.59
70229;BME280;57617;51.988;5.854;2023-01-26T02:35:53;102001.56;;;2.95;72.08
70229;BME280;57617;51.988;5.854;2023-01-26T02:38:20;101999.72;;;2.95;72.66
70229;BME280;57617;51.988;5.854;2023-01-26T02:41:03;101997.84;;;2.96;72.11
70229;BME280;57617;51.988;5.854;2023-01-26T02:43:30;101999.38;;;2.98;72.42
70229;BME280;57617;51.988;5.854;2023-01-26T02:45:56;102000.06;;;3.00;71.72
70229;BME280;57617;51.988;5.854;2023-01-26T02:48:21;101990.00;;;3.02;72.91
70229;BME280;57617;51.988;5.854;2023-01-26T02:51:05;101992.84;;;3.01;72.09
70229;BME280;57617;51.988;5.854;2023-01-26T02:53:31;101996.53;;;3.00;72.52
70229;BME280;57617;51.988;5.854;2023-01-26T02:55:56;102009.81;;;3.01;72.59
70229;BME280;57617;51.988;5.854;2023-01-26T02:58:21;102005.09;;;3.03;72.21
70229;BME280;57617;51.988;5.854;2023-01-26T03:00:47;102007.63;;;3.05;72.02
70229;BME280;57617;51.988;5.854;2023-01-26T03:03:21;102012.13;;;3.04;72.17
70229;BME280;57617;51.988;5.854;2023-01-26T03:05:47;102009.66;;;3.03;72.02
70229;BME280;57617;51.988;5.854;2023-01-26T03:08:13;102009.94;;;3.00;72.58
70229;BME280;57617;51.988;5.854;2023-01-26T03:10:38;102003.22;;;2.96;72.34
70229;BME280;57617;51.988;5.854;2023-01-26T03:13:04;102000.88;;;2.93;72.31
70229;BME280;57617;51.988;5.854;2023-01-26T03:15:29;102007.63;;;2.97;73.13
70229;BME280;57617;51.988;5.854;2023-01-26T03:18:09;102000.91;;;3.01;72.95
70229;BME280;57617;51.988;5.854;2023-01-26T03:20:54;101999.22;;;3.00;72.27
70229;BME280;57617;51.988;5.854;2023-01-26T03:23:38;101996.38;;;3.01;72.40
70229;BME280;57617;51.988;5.854;2023-01-26T03:26:22;102003.91;;;2.98;72.79
70229;BME280;57617;51.988;5.854;2023-01-26T03:29:06;101994.34;;;2.95;72.35
70229;BME280;57617;51.988;5.854;2023-01-26T03:31:31;102005.09;;;2.95;72.51
70229;BME280;57617;51.988;5.854;2023-01-26T03:33:56;102003.72;;;2.99;72.46
70229;BME280;57617;51.988;5.854;2023-01-26T03:36:22;102005.44;;;3.00;72.33
70229;BME280;57617;51.988;5.854;2023-01-26T03:38:47;102009.09;;;2.99;72.42
70229;BME280;57617;51.988;5.854;2023-01-26T03:41:12;102004.59;;;3.00;73.03
70229;BME280;57617;51.988;5.854;2023-01-26T03:43:56;102006.78;;;3.04;72.72
70229;BME280;57617;51.988;5.854;2023-01-26T03:46:40;102001.41;;;3.04;72.83
70229;BME280;57617;51.988;5.854;2023-01-26T03:49:24;101996.56;;;3.08;72.10
70229;BME280;57617;51.988;5.854;2023-01-26T03:52:08;101991.22;;;3.08;72.69
70229;BME280;57617;51.988;5.854;2023-01-26T03:54:52;101991.53;;;3.05;73.04
70229;BME280;57617;51.988;5.854;2023-01-26T03:57:36;101990.66;;;3.04;72.22
70229;BME280;57617;51.988;5.854;2023-01-26T04:00:01;102001.25;;;3.06;73.08
70229;BME280;57617;51.988;5.854;2023-01-26T04:02:27;101998.72;;;3.04;72.55
70229;BME280;57617;51.988;5.854;2023-01-26T04:05:11;102000.59;;;3.04;73.06
70229;BME280;57617;51.988;5.854;2023-01-26T04:08:03;101996.38;;;3.09;72.80
70229;BME280;57617;51.988;5.854;2023-01-26T04:10:49;102002.91;;;3.07;72.64
70229;BME280;57617;51.988;5.854;2023-01-26T04:13:16;101995.22;;;3.04;73.10
70229;BME280;57617;51.988;5.854;2023-01-26T04:16:00;101997.75;;;3.05;72.38
70229;BME280;57617;51.988;5.854;2023-01-26T04:18:44;101993.53;;;3.03;72.78
70229;BME280;57617;51.988;5.854;2023-01-26T04:21:28;101994.22;;;3.05;72.54
70229;BME280;57617;51.988;5.854;2023-01-26T04:23:55;101999.25;;;3.08;72.86
70229;BME280;57617;51.988;5.854;2023-01-26T04:26:22;102002.59;;;3.10;72.86
70229;BME280;57617;51.988;5.854;2023-01-26T04:28:48;102005.97;;;3.12;73.02
70229;BME280;57617;51.988;5.854;2023-01-26T04:31:13;101998.44;;;3.15;73.12
70229;BME280;57617;51.988;5.854;2023-01-26T04:33:40;101996.75;;;3.14;72.54
70229;BME280;57617;51.988;5.854;2023-01-26T04:36:07;101989.22;;;3.18;73.17
70229;BME280;57617;51.988;5.854;2023-01-26T04:38:33;101991.25;;;3.24;72.85
70229;BME280;57617;51.988;5.854;2023-01-26T04:40:58;101985.72;;;3.25;72.22
70229;BME280;57617;51.988;5.854;2023-01-26T04:43:23;101988.91;;;3.29;72.83
70229;BME280;57617;51.988;5.854;2023-01-26T04:46:01;101982.88;;;3.35;72.97
70229;BME280;57617;51.988;5.854;2023-01-26T04:48:28;101983.03;;;3.33;72.74
70229;BME280;57617;51.988;5.854;2023-01-26T04:50:55;101980.03;;;3.36;72.11
70229;BME280;57617;51.988;5.854;2023-01-26T04:53:20;101988.09;;;3.36;72.28
70229;BME280;57617;51.988;5.854;2023-01-26T04:55:46;101989.75;;;3.37;73.04
70229;BME280;57617;51.988;5.854;2023-01-26T04:58:11;101989.09;;;3.35;72.22
70229;BME280;57617;51.988;5.854;2023-01-26T05:00:36;101990.06;;;3.34;72.05
70229;BME280;57617;51.988;5.854;2023-01-26T05:03:02;101990.28;;;3.33;72.13
70229;BME280;57617;51.988;5.854;2023-01-26T05:05:27;101984.72;;;3.34;72.98
70229;BME280;57617;51.988;5.854;2023-01-26T05:07:52;101980.03;;;3.36;72.34
70229;BME280;57617;51.988;5.854;2023-01-26T05:10:18;101976.50;;;3.36;72.43
70229;BME280;57617;51.988;5.854;2023-01-26T05:12:43;101971.63;;;3.39;72.71
70229;BME280;57617;51.988;5.854;2023-01-26T05:15:09;101977.00;;;3.39;73.05
70229;BME280;57617;51.988;5.854;2023-01-26T05:17:34;101982.22;;;3.41;72.92
70229;BME280;57617;51.988;5.854;2023-01-26T05:20:00;101972.97;;;3.43;72.52
70229;BME280;57617;51.988;5.854;2023-01-26T05:22:25;101981.69;;;3.45;72.13
70229;BME280;57617;51.988;5.854;2023-01-26T05:24:51;101979.72;;;3.47;72.24
70229;BME280;57617;51.988;5.854;2023-01-26T05:27:16;101968.81;;;3.49;72.19
70229;BME280;57617;51.988;5.854;2023-01-26T05:29:51;101974.84;;;3.51;72.20
70229;BME280;57617;51.988;5.854;2023-01-26T05:32:16;101971.28;;;3.50;72.37
70229;BME280;57617;51.988;5.854;2023-01-26T05:34:42;101975.16;;;3.48;72.71
70229;BME280;57617;51.988;5.854;2023-01-26T05:37:07;101971.66;;;3.47;72.67
70229;BME280;57617;51.988;5.854;2023-01-26T05:39:32;101971.28;;;3.50;72.33
70229;BME280;57617;51.988;5.854;2023-01-26T05:41:58;101974.69;;;3.52;72.60
70229;BME280;57617;51.988;5.854;2023-01-26T05:44:23;101970.47;;;3.50;71.95
70229;BME280;57617;51.988;5.854;2023-01-26T05:46:53;101972.00;;;3.52;72.37
70229;BME280;57617;51.988;5.854;2023-01-26T05:49:18;101967.63;;;3.51;72.52
70229;BME280;57617;51.988;5.854;2023-01-26T05:51:44;101966.47;;;3.54;72.67
70229;BME280;57617;51.988;5.854;2023-01-26T05:54:09;101975.84;;;3.58;72.29
70229;BME280;57617;51.988;5.854;2023-01-26T05:56:34;101974.00;;;3.58;71.99
70229;BME280;57617;51.988;5.854;2023-01-26T05:59:00;101979.38;;;3.58;72.25
70229;BME280;57617;51.988;5.854;2023-01-26T06:01:25;101971.31;;;3.58;72.75
70229;BME280;57617;51.988;5.854;2023-01-26T06:03:50;101980.22;;;3.59;72.03
70229;BME280;57617;51.988;5.854;2023-01-26T06:06:15;101982.72;;;3.60;72.69
70229;BME280;57617;51.988;5.854;2023-01-26T06:08:41;101978.19;;;3.61;72.34
70229;BME280;57617;51.988;5.854;2023-01-26T06:11:06;101980.88;;;3.61;72.35
70229;BME280;57617;51.988;5.854;2023-01-26T06:13:31;101990.13;;;3.66;72.12
70229;BME280;57617;51.988;5.854;2023-01-26T06:15:59;101978.38;;;3.67;71.82
70229;BME280;57617;51.988;5.854;2023-01-26T06:18:25;101980.06;;;3.68;72.24
70229;BME280;57617;51.988;5.854;2023-01-26T06:20:51;101983.91;;;3.66;72.51
70229;BME280;57617;51.988;5.854;2023-01-26T06:23:16;101988.97;;;3.69;72.04
70229;BME280;57617;51.988;5.854;2023-01-26T06:25:41;101981.72;;;3.69;72.06
70229;BME280;57617;51.988;5.854;2023-01-26T06:28:07;101980.72;;;3.70;72.02
70229;BME280;57617;51.988;5.854;2023-01-26T06:30:32;101983.41;;;3.70;72.42
70229;BME280;57617;51.988;5.854;2023-01-26T06:32:59;101977.88;;;3.64;72.30
70229;BME280;57617;51.988;5.854;2023-01-26T06:35:24;101996.81;;;3.70;72.18
70229;BME280;57617;51.988;5.854;2023-01-26T06:37:51;101992.47;;;3.69;71.98
70229;BME280;57617;51.988;5.854;2023-01-26T06:40:16;101990.78;;;3.68;72.56
70229;BME280;57617;51.988;5.854;2023-01-26T06:42:49;101999.19;;;3.73;72.08
70229;BME280;57617;51.988;5.854;2023-01-26T06:45:16;101995.66;;;3.73;72.67
70229;BME280;57617;51.988;5.854;2023-01-26T06:47:49;101997.53;;;3.72;72.00
70229;BME280;57617;51.988;5.854;2023-01-26T06:50:17;102006.25;;;3.74;72.54
70229;BME280;57617;51.988;5.854;2023-01-26T06:52:45;102009.78;;;3.75;72.66
70229;BME280;57617;51.988;5.854;2023-01-26T06:55:17;102012.78;;;3.72;72.43
70229;BME280;57617;51.988;5.854;2023-01-26T06:57:44;102006.59;;;3.71;72.35
70229;BME280;57617;51.988;5.854;2023-01-26T07:00:11;102014.66;;;3.71;72.81
70229;BME280;57617;51.988;5.854;2023-01-26T07:02:36;102011.97;;;3.71;72.68
70229;BME280;57617;51.988;5.854;2023-01-26T07:05:02;102014.13;;;3.68;73.06
70229;BME280;57617;51.988;5.854;2023-01-26T07:07:27;102009.75;;;3.67;72.68
70229;BME280;57617;51.988;5.854;2023-01-26T07:09:53;102019.69;;;3.66;72.92
70229;BME280;57617;51.988;5.854;2023-01-26T07:12:19;102010.63;;;3.67;72.49
70229;BME280;57617;51.988;5.854;2023-01-26T07:14:44;102013.97;;;3.69;72.54
70229;BME280;57617;51.988;5.854;2023-01-26T07:17:09;102007.56;;;3.70;72.63
70229;BME280;57617;51.988;5.854;2023-01-26T07:19:34;102013.97;;;3.69;72.76
70229;BME280;57617;51.988;5.854;2023-01-26T07:22:01;102013.97;;;3.69;72.89
70229;BME280;57617;51.988;5.854;2023-01-26T07:24:27;102010.25;;;3.70;72.53
70229;BME280;57617;51.988;5.854;2023-01-26T07:26:52;102010.09;;;3.72;73.06
70229;BME280;57617;51.988;5.854;2023-01-26T07:29:17;102014.31;;;3.74;72.49
70229;BME280;57617;51.988;5.854;2023-01-26T07:31:43;102016.16;;;3.74;73.13
70229;BME280;57617;51.988;5.854;2023-01-26T07:34:09;102013.63;;;3.72;73.16
70229;BME280;57617;51.988;5.854;2023-01-26T07:36:34;102024.88;;;3.76;72.37
70229;BME280;57617;51.988;5.854;2023-01-26T07:38:59;102028.44;;;3.76;73.12
70229;BME280;57617;51.988;5.854;2023-01-26T07:41:25;102022.03;;;3.77;72.60
70229;BME280;57617;51.988;5.854;2023-01-26T07:43:50;102025.53;;;3.78;72.64
70229;BME280;57617;51.988;5.854;2023-01-26T07:46:16;102021.84;;;3.71;72.90
70229;BME280;57617;51.988;5.854;2023-01-26T07:48:41;102029.41;;;3.75;72.70
70229;BME280;57617;51.988;5.854;2023-01-26T07:51:06;102028.44;;;3.76;73.15
70229;BME280;57617;51.988;5.854;2023-01-26T07:53:33;102033.59;;;3.78;72.93
70229;BME280;57617;51.988;5.854;2023-01-26T07:56:11;102034.47;;;3.78;73.24
70229;BME280;57617;51.988;5.854;2023-01-26T07:58:37;102031.13;;;3.76;73.03
70229;BME280;57617;51.988;5.854;2023-01-26T08:01:04;102031.78;;;3.78;73.26
70229;BME280;57617;51.988;5.854;2023-01-26T08:03:30;102031.78;;;3.78;73.06
70229;BME280;57617;51.988;5.854;2023-01-26T08:05:55;102036.97;;;3.80;73.24
70229;BME280;57617;51.988;5.854;2023-01-26T08:08:20;102036.97;;;3.80;73.17
70229;BME280;57617;51.988;5.854;2023-01-26T08:10:45;102038.66;;;3.81;72.76
70229;BME280;57617;51.988;5.854;2023-01-26T08:13:11;102043.19;;;3.80;72.91
70229;BME280;57617;51.988;5.854;2023-01-26T08:15:36;102041.00;;;3.76;73.13
70229;BME280;57617;51.988;5.854;2023-01-26T08:18:01;102036.66;;;3.75;73.84
70229;BME280;57617;51.988;5.854;2023-01-26T08:20:29;102035.63;;;3.76;73.58
70229;BME280;57617;51.988;5.854;2023-01-26T08:22:54;102040.00;;;3.77;73.32
70229;BME280;57617;51.988;5.854;2023-01-26T08:25:19;102044.72;;;3.75;73.87
70229;BME280;57617;51.988;5.854;2023-01-26T08:27:45;102050.75;;;3.77;74.09
70229;BME280;57617;51.988;5.854;2023-01-26T08:30:11;102051.44;;;3.79;74.20
70229;BME280;57617;51.988;5.854;2023-01-26T08:32:37;102040.34;;;3.82;73.61
70229;BME280;57617;51.988;5.854;2023-01-26T08:35:03;102040.16;;;3.83;73.95
70229;BME280;57617;51.988;5.854;2023-01-26T08:37:28;102046.22;;;3.85;74.24
70229;BME280;57617;51.988;5.854;2023-01-26T08:39:54;102041.69;;;3.86;73.94
70229;BME280;57617;51.988;5.854;2023-01-26T08:42:19;102041.34;;;3.89;73.66
70229;BME280;57617;51.988;5.854;2023-01-26T08:44:44;102038.47;;;3.90;74.26
70229;BME280;57617;51.988;5.854;2023-01-26T08:47:10;102041.88;;;3.92;74.23
70229;BME280;57617;51.988;5.854;2023-01-26T08:49:35;102049.22;;;3.90;74.14
70229;BME280;57617;51.988;5.854;2023-01-26T08:52:00;102047.06;;;3.86;73.97
70229;BME280;57617;51.988;5.854;2023-01-26T08:54:25;102046.22;;;3.85;74.16
70229;BME280;57617;51.988;5.854;2023-01-26T08:56:51;102044.38;;;3.86;74.83
70229;BME280;57617;51.988;5.854;2023-01-26T08:59:18;102047.22;;;3.84;74.68
70229;BME280;57617;51.988;5.854;2023-01-26T09:01:43;102046.88;;;3.79;74.89
70229;BME280;57617;51.988;5.854;2023-01-26T09:04:09;102045.38;;;3.85;74.95
70229;BME280;57617;51.988;5.854;2023-01-26T09:06:34;102046.91;;;3.87;74.81
70229;BME280;57617;51.988;5.854;2023-01-26T09:08:59;102051.09;;;3.90;75.18
70229;BME280;57617;51.988;5.854;2023-01-26T09:11:25;102051.25;;;3.88;74.35
70229;BME280;57617;51.988;5.854;2023-01-26T09:13:50;102050.56;;;3.86;74.93
70229;BME280;57617;51.988;5.854;2023-01-26T09:16:21;102056.28;;;3.91;74.67
70229;BME280;57617;51.988;5.854;2023-01-26T09:18:50;102068.75;;;3.92;74.80
70229;BME280;57617;51.988;5.854;2023-01-26T09:21:17;102080.31;;;3.93;75.05
70229;BME280;57617;51.988;5.854;2023-01-26T09:23:42;102064.19;;;3.93;74.39
70229;BME280;57617;51.988;5.854;2023-01-26T09:26:08;102058.31;;;3.89;74.70
70229;BME280;57617;51.988;5.854;2023-01-26T09:28:33;102067.03;;;3.91;74.82
70229;BME280;57617;51.988;5.854;2023-01-26T09:31:07;102063.53;;;3.91;75.38
70229;BME280;57617;51.988;5.854;2023-01-26T09:33:34;102055.94;;;3.86;75.30
70229;BME280;57617;51.988;5.854;2023-01-26T09:36:07;102068.38;;;3.95;74.98
70229;BME280;57617;51.988;5.854;2023-01-26T09:38:34;102062.50;;;3.92;74.94
70229;BME280;57617;51.988;5.854;2023-01-26T09:44:23;102066.88;;;3.93;75.72
70229;BME280;57617;51.988;5.854;2023-01-26T09:47:06;102070.41;;;3.93;75.88
70229;BME280;57617;51.988;5.854;2023-01-26T09:49:47;102057.31;;;3.98;75.77
70229;BME280;57617;51.988;5.854;2023-01-26T09:54:49;102055.28;;;4.00;75.35
70229;BME280;57617;51.988;5.854;2023-01-26T09:57:18;102062.66;;;4.06;75.24
70229;BME280;57617;51.988;5.854;2023-01-26T10:05:34;102071.06;;;4.11;75.96
70229;BME280;57617;51.988;5.854;2023-01-26T10:08:01;102064.53;;;4.14;75.96
70229;BME280;57617;51.988;5.854;2023-01-26T10:10:31;102069.72;;;4.15;76.32
70229;BME280;57617;51.988;5.854;2023-01-26T10:12:58;102069.41;;;4.18;76.08
70229;BME280;57617;51.988;5.854;2023-01-26T10:15:29;102062.69;;;4.22;75.66
70229;BME280;57617;51.988;5.854;2023-01-26T10:17:58;102061.66;;;4.31;75.80
70229;BME280;57617;51.988;5.854;2023-01-26T10:20:33;102056.28;;;4.31;76.23
70229;BME280;57617;51.988;5.854;2023-01-26T10:23:13;102068.88;;;4.39;76.16
70229;BME280;57617;51.988;5.854;2023-01-26T10:25:42;102064.00;;;4.42;76.69
70229;BME280;57617;51.988;5.854;2023-01-26T10:28:17;102069.69;;;4.47;76.78
70229;BME280;57617;51.988;5.854;2023-01-26T10:30:44;102064.00;;;4.50;76.06
70229;BME280;57617;51.988;5.854;2023-01-26T10:33:32;102069.53;;;4.57;76.47
70229;BME280;57617;51.988;5.854;2023-01-26T10:35:59;102069.00;;;4.61;76.57
70229;BME280;57617;51.988;5.854;2023-01-26T10:38:45;102067.50;;;4.67;76.59
70229;BME280;57617;51.988;5.854;2023-01-26T10:46:34;102058.91;;;4.71;76.70
70229;BME280;57617;51.988;5.854;2023-01-26T10:51:37;102058.84;;;4.87;76.97
70229;BME280;57617;51.988;5.854;2023-01-26T10:54:26;102061.19;;;4.90;77.45
70229;BME280;57617;51.988;5.854;2023-01-26T10:57:01;102065.03;;;4.96;77.20
70229;BME280;57617;51.988;5.854;2023-01-26T10:59:31;102058.44;;;5.06;77.10
70229;BME280;57617;51.988;5.854;2023-01-26T11:07:38;102054.47;;;5.33;76.78
70229;BME280;57617;51.988;5.854;2023-01-26T11:10:38;102061.13;;;5.45;77.50
70229;BME280;57617;51.988;5.854;2023-01-26T11:15:48;102047.53;;;5.61;76.87
70229;BME280;57617;51.988;5.854;2023-01-26T11:22:06;102057.41;;;5.76;77.14
70229;BME280;57617;51.988;5.854;2023-01-26T11:24:24;102055.97;;;5.88;77.42
70229;BME280;57617;51.988;5.854;2023-01-26T11:27:10;102056.75;;;5.97;78.00
70229;BME280;57617;51.988;5.854;2023-01-26T11:29:57;102057.53;;;6.05;77.28
70229;BME280;57617;51.988;5.854;2023-01-26T11:32:37;102054.03;;;6.19;76.90
70229;BME280;57617;51.988;5.854;2023-01-26T11:35:28;102053.13;;;6.27;77.49
70229;BME280;57617;51.988;5.854;2023-01-26T11:38:14;102061.50;;;6.32;77.48
70229;BME280;57617;51.988;5.854;2023-01-26T11:40:51;102053.16;;;6.41;77.18
70229;BME280;57617;51.988;5.854;2023-01-26T11:57:06;102046.03;;;7.06;77.62
70229;BME280;57617;51.988;5.854;2023-01-26T11:59:38;102039.94;;;7.19;77.10
70229;BME280;57617;51.988;5.854;2023-01-26T12:04:51;102032.16;;;7.45;78.32
70229;BME280;57617;51.988;5.854;2023-01-26T12:07:30;102038.38;;;7.60;77.64
70229;BME280;57617;51.988;5.854;2023-01-26T12:10:16;102029.38;;;7.74;77.39
70229;BME280;57617;51.988;5.854;2023-01-26T12:12:48;102030.72;;;7.84;77.76
70229;BME280;57617;51.988;5.854;2023-01-26T12:15:20;102028.34;;;7.96;78.73
70229;BME280;57617;51.988;5.854;2023-01-26T12:17:57;102026.31;;;8.04;77.83
70229;BME280;57617;51.988;5.854;2023-01-26T12:20:35;102019.09;;;8.11;77.69
70229;BME280;57617;51.988;5.854;2023-01-26T12:25:38;102008.06;;;8.34;78.36
70229;BME280;57617;51.988;5.854;2023-01-26T12:28:04;102002.56;;;8.48;78.11
70229;BME280;57617;51.988;5.854;2023-01-26T12:31:10;102005.59;;;8.66;78.31
70229;BME280;57617;51.988;5.854;2023-01-26T12:33:38;101997.09;;;8.69;77.26
70229;BME280;57617;51.988;5.854;2023-01-26T12:39:02;101992.28;;;8.71;76.82
70229;BME280;57617;51.988;5.854;2023-01-26T12:42:00;101976.94;;;8.78;77.08
70229;BME280;57617;51.988;5.854;2023-01-26T12:44:42;101983.41;;;8.84;76.99
70229;BME280;57617;51.988;5.854;2023-01-26T12:49:45;101970.13;;;8.95;77.23
70229;BME280;57617;51.988;5.854;2023-01-26T12:52:28;101976.63;;;9.07;77.08
70229;BME280;57617;51.988;5.854;2023-01-26T12:55:15;101968.09;;;9.10;76.30
70229;BME280;57617;51.988;5.854;2023-01-26T12:57:46;101974.16;;;9.12;76.72
70229;BME280;57617;51.988;5.854;2023-01-26T13:00:19;101966.25;;;9.17;76.84
70229;BME280;57617;51.988;5.854;2023-01-26T13:02:52;101965.22;;;9.25;77.14
70229;BME280;57617;51.988;5.854;2023-01-26T13:05:26;101956.28;;;9.24;76.29
70229;BME280;57617;51.988;5.854;2023-01-26T13:07:52;101964.84;;;9.28;76.12
70229;BME280;57617;51.988;5.854;2023-01-26T13:10:26;101963.16;;;9.27;76.07
70229;BME280;57617;51.988;5.854;2023-01-26T13:13:00;101963.81;;;9.35;76.49
70229;BME280;57617;51.988;5.854;2023-01-26T13:15:29;101953.38;;;9.39;76.63
70229;BME280;57617;51.988;5.854;2023-01-26T13:17:59;101962.56;;;9.44;76.57
70229;BME280;57617;51.988;5.854;2023-01-26T13:23:36;101954.84;;;9.54;75.51
70229;BME280;57617;51.988;5.854;2023-01-26T13:28:36;101949.88;;;9.64;76.00
70229;BME280;57617;51.988;5.854;2023-01-26T13:31:03;101956.75;;;9.67;75.81
70229;BME280;57617;51.988;5.854;2023-01-26T13:33:29;101952.81;;;9.63;75.77
70229;BME280;57617;51.988;5.854;2023-01-26T13:35:54;101950.31;;;9.68;75.17
70229;BME280;57617;51.988;5.854;2023-01-26T13:38:38;101959.25;;;9.62;74.56
70229;BME280;57617;51.988;5.854;2023-01-26T13:41:11;101952.38;;;9.59;74.70
70229;BME280;57617;51.988;5.854;2023-01-26T13:43:42;101958.22;;;9.56;75.27
70229;BME280;57617;51.988;5.854;2023-01-26T13:48:48;101952.97;;;9.48;74.68
70229;BME280;57617;51.988;5.854;2023-01-26T13:51:16;101963.81;;;9.48;75.18
70229;BME280;57617;51.988;5.854;2023-01-26T13:53:46;101960.72;;;9.51;75.00
70229;BME280;57617;51.988;5.854;2023-01-26T13:56:31;101960.28;;;9.48;74.42
70229;BME280;57617;51.988;5.854;2023-01-26T14:01:31;101928.75;;;9.34;74.75
70229;BME280;57617;51.988;5.854;2023-01-26T14:04:04;101952.34;;;9.46;74.72
70229;BME280;57617;51.988;5.854;2023-01-26T14:06:30;101954.22;;;9.46;74.82
70229;BME280;57617;51.988;5.854;2023-01-26T14:08:57;101958.19;;;9.43;74.36
70229;BME280;57617;51.988;5.854;2023-01-26T14:11:25;101957.56;;;9.41;74.75
70229;BME280;57617;51.988;5.854;2023-01-26T14:13:54;101957.75;;;9.40;74.66
70229;BME280;57617;51.988;5.854;2023-01-26T14:18:48;101955.69;;;9.35;74.68
70229;BME280;57617;51.988;5.854;2023-01-26T14:21:18;101957.75;;;9.33;74.02
70229;BME280;57617;51.988;5.854;2023-01-26T14:23:44;101949.00;;;9.31;73.96
70229;BME280;57617;51.988;5.854;2023-01-26T14:26:20;101951.28;;;9.28;73.97